createdAt,value
2023-04-24T00:08:55.867Z,99267.00
2023-04-24T00:18:55.832Z,99269.00
2023-04-24T00:28:56.204Z,99267.00
2023-04-24T00:38:56.044Z,99263.00
2023-04-24T00:48:56.677Z,99259.00
2023-04-24T00:58:57.140Z,99248.00
2023-04-24T01:08:57.001Z,99243.00
2023-04-24T01:18:56.934Z,99246.00
2023-04-24T01:28:56.974Z,99261.00
2023-04-24T01:38:58.913Z,99263.00
2023-04-24T01:48:59.087Z,99272.00
2023-04-24T01:58:59.012Z,99276.00
2023-04-24T02:08:58.983Z,99278.00
2023-04-24T02:18:59.059Z,99271.00
2023-04-24T02:28:59.021Z,99276.00
2023-04-24T02:38:59.091Z,99278.00
2023-04-24T02:48:59.898Z,99282.00
2023-04-24T02:59:00.359Z,99288.00
2023-04-24T03:09:00.401Z,99296.00
2023-04-24T03:19:01.344Z,99306.00
2023-04-24T03:29:01.550Z,99312.00
2023-04-24T03:39:03.970Z,99319.00
2023-04-24T03:49:06.138Z,99319.00
2023-04-24T03:59:06.659Z,99321.00
2023-04-24T04:09:07.933Z,99323.00
2023-04-24T04:19:09.391Z,99327.00
2023-04-24T04:29:11.080Z,99335.00
2023-04-24T04:39:31.227Z,99339.00
2023-04-24T04:49:31.924Z,99343.00
2023-04-24T04:59:34.029Z,99349.00
2023-04-24T05:09:36.102Z,99351.00
2023-04-24T05:19:38.688Z,99355.00
2023-04-24T05:29:39.597Z,99359.00
2023-04-24T05:39:39.785Z,99367.00
2023-04-24T05:49:41.973Z,99374.00
2023-04-24T05:59:43.112Z,99378.00
2023-04-24T06:09:43.938Z,99382.00
2023-04-24T06:20:05.897Z,99386.00
2023-04-24T06:30:07.523Z,99386.00
2023-04-24T06:40:08.435Z,99390.00
2023-04-24T06:50:09.510Z,99396.00
2023-04-24T07:00:10.343Z,99398.00
2023-04-24T07:10:10.468Z,99402.00
2023-04-24T07:20:11.164Z,99410.00
2023-04-24T07:30:11.527Z,99416.00
2023-04-24T07:40:11.459Z,99425.00
2023-04-24T07:50:11.520Z,99429.00
2023-04-24T08:00:14.343Z,99459.00
2023-04-24T08:10:14.539Z,99468.00
2023-04-24T08:20:14.544Z,99472.00
2023-04-24T08:30:14.481Z,99478.00
2023-04-24T08:40:15.243Z,99482.00
2023-04-24T08:50:15.905Z,99496.00
2023-04-24T09:00:16.589Z,99534.00
2023-04-24T09:10:16.507Z,99549.00
2023-04-24T09:20:16.652Z,99587.00
2023-04-24T09:30:16.532Z,99612.00
2023-04-24T09:40:16.765Z,99638.00
2023-04-24T09:50:16.885Z,99663.00
2023-04-24T10:00:17.636Z,99692.00
2023-04-24T10:10:17.696Z,99708.00
2023-04-24T10:20:17.713Z,99728.00
2023-04-24T10:30:30.561Z,99737.00
2023-04-24T10:40:31.075Z,99751.00
2023-04-24T10:50:31.674Z,99761.00
2023-04-24T11:00:31.656Z,99785.00
2023-04-24T11:10:31.709Z,99801.00
2023-04-24T11:20:31.705Z,99818.00
2023-04-24T11:30:31.729Z,99818.00
2023-04-24T11:40:31.938Z,99836.00
2023-04-24T11:50:31.686Z,99848.00
2023-04-24T12:00:32.122Z,99864.00
2023-04-24T12:10:32.770Z,99865.00
2023-04-24T12:20:32.835Z,99871.00
2023-04-24T12:30:32.893Z,99885.00
2023-04-24T12:40:32.865Z,99893.00
2023-04-24T12:50:32.790Z,99905.00
2023-04-24T13:00:32.857Z,99909.00
2023-04-24T13:10:32.871Z,99914.00
2023-04-24T13:20:32.847Z,99914.00
2023-04-24T13:30:33.067Z,99922.00
2023-04-24T13:40:32.940Z,99920.00
2023-04-24T13:50:32.888Z,99922.00
2023-04-24T14:00:33.113Z,99922.00
2023-04-24T14:10:33.006Z,99920.00
2023-04-24T14:20:32.985Z,99924.00
2023-04-24T14:30:32.911Z,99936.00
2023-04-24T14:40:56.099Z,99940.00
2023-04-24T14:50:35.382Z,99946.00
2023-04-24T15:00:36.206Z,99944.00
2023-04-24T15:10:36.119Z,99944.00
2023-04-24T15:20:38.012Z,99942.00
2023-04-24T15:30:38.078Z,99938.00
2023-04-24T15:40:38.085Z,99934.00
2023-04-24T15:50:38.126Z,99938.00
2023-04-24T16:00:38.047Z,99944.00
2023-04-24T16:10:38.144Z,99946.00
2023-04-24T16:20:38.149Z,99946.00
2023-04-24T16:30:39.792Z,99950.00
2023-04-24T16:40:41.821Z,99954.00
2023-04-24T16:50:42.132Z,99956.00
2023-04-24T17:00:42.317Z,99959.00
2023-04-24T17:10:42.220Z,99963.00
2023-04-24T17:20:42.254Z,99965.00
2023-04-24T17:30:42.195Z,99975.00
2023-04-24T17:40:42.313Z,99981.00
2023-04-24T17:50:42.232Z,99989.00
2023-04-24T18:00:42.201Z,99997.00
2023-04-24T18:10:44.376Z,100003.00
2023-04-24T18:20:44.307Z,100010.00
2023-04-24T18:30:44.281Z,100018.00
2023-04-24T18:40:44.319Z,100033.00
2023-04-24T18:50:44.316Z,100042.00
2023-04-24T19:00:44.392Z,100050.00
2023-04-24T19:10:44.419Z,100064.00
2023-04-24T19:20:45.125Z,100080.00
2023-04-24T19:30:45.728Z,100091.00
2023-04-24T19:40:46.449Z,100095.00
2023-04-24T19:50:46.439Z,100093.00
2023-04-24T20:00:46.388Z,100095.00
2023-04-24T20:10:46.465Z,100099.00
2023-04-24T20:20:46.356Z,100097.00
2023-04-24T20:30:46.455Z,100101.00
2023-04-24T20:40:57.244Z,100105.00
2023-04-24T20:50:50.062Z,100111.00
2023-04-24T21:00:50.539Z,100113.00
2023-04-24T21:10:51.479Z,100113.00
2023-04-24T21:20:52.883Z,100115.00
2023-04-24T21:30:53.548Z,100113.00
2023-04-24T21:40:53.570Z,100117.00
2023-04-24T21:50:53.566Z,100117.00
2023-04-24T22:00:53.542Z,100119.00
2023-04-24T22:10:54.279Z,100117.00
2023-04-24T22:20:54.491Z,100115.00
2023-04-24T22:30:54.600Z,100117.00
2023-04-24T22:40:54.617Z,100115.00
2023-04-24T22:50:55.561Z,100115.00
2023-04-24T23:00:55.782Z,100109.00
2023-04-24T23:10:55.644Z,100113.00
2023-04-24T23:20:55.960Z,100113.00
2023-04-24T23:30:55.731Z,100115.00
2023-04-24T23:40:55.787Z,100117.00
2023-04-24T23:50:55.663Z,100123.00
